Tuttle, ND

2:47 AM CST on November 26, 2014 (GMT -0600)
Mandan | Change Station
CLOSE
Current Station
Airport
Location: Mandan,
Elevation: 1942 ft
Nearby Weather Stations
Active Advisory: Winter Weather Advisory Active Notice: Public Information Statement

Elev 1942 ft 46.77 °N, 100.89 °W | Updated 12 minutes ago

Overcast
Overcast
12 °F
Feels Like -3 °F
N
14
Wind Variable Wind from North

Today
High -- | Low -- °F
--% Chance of Precip.
Yesterday
High -- | Low -- °F
Precip. -- in
7:59 AM 4:54 PM
Waxing Crescent, 18% visible
Pressure 30.21 in
Visibility 10.0 miles
Clouds Scattered Clouds 600 ft
Overcast 1600 ft
Windchill -3 °F
Dew Point 9 °F
Humidity 85%
Rainfall 0.00 in
Snow Depth Not available.
UV 0 out of 12
Pollen .10 out of 12
Air Quality Not available.
Flu Activity Not available.
METAR KY19 260835Z AUTO 35012KT 10SM -SN SCT006 OVC016 M11/M13 A3021 RMK AO2

More Conditions Fewer Conditions

Pressure 30.21 in
Visibility 10.0 miles
Clouds Scattered Clouds 600 ft
Overcast 1600 ft
Windchill -3 °F
Dew Point 9 °F
Humidity 85%
Rainfall 0.00 in
Snow Depth Not available.
UV 0 out of 12
Pollen .10 out of 12
Air Quality Not available.
Flu Activity Not available.
METAR KY19 260835Z AUTO 35012KT 10SM -SN SCT006 OVC016 M11/M13 A3021 RMK AO2

More Conditions Fewer Conditions

10-Day Weather Forecast

Almanac

Astronomy

Nov. 26, 2014 Rise Set
Actual Time
Civil Twilight
Nautical Twilight
Astronomical Twilight
Moon
Length of Visible Light
Length of Day
Tomorrow will be .
, % of the Moon is Illuminated

Today's Extremes

State Highs State Lows

Community

WunderPhotos

Upload Photos

1,773,694 photos uploaded!

WunderBlogs® & News

Nearby

Air Quality

  Air Quality AQ Index Pollutant
Not available.

Snow Depth

Station Depth Elevation

Earthquake Activity

City Distance Mag. Time & Date
Minimum magnitude displayed is 2.5.

Coastal Water Temperatures

Place Temperature

Nearby Weather Stations